Albany, Georgia
Current Conditions -  °F | °C
As of 10:53 PM on Sunday 25 Jan 2015 (Local Time) from KABY Reporting Station
Clear Clear  
Wind Chill: 51°   Ceiling: Unl
Heat Index: 51°   Visibility: 10mi
Dew Point: 45°   Wind: 6mph
Humidity: 80%   Direction: 210°SSW
Pressure: 29.85"   Gusts: NA
Location:  31.58°N, 84.15°W
Report Text: KABY 260353Z AUTO 21005KT 10SM CLR 11/07 A2985 RMK AO2 SLP107 T01060072
Loading
Personal Weather Stations






























Interactive Weather Map New forecast layout! Learn more

10-Day Weather Forecast

Advertisements
Track Severe Weather on mobile